Time;durP1;ratioP1;P1;durP2;ratioP2;P2;SDS_P1;SDS_P2;PMS_P1;PMS_P2;Temp;Humidity;BMP_temperature;BMP_pressure;BME280_temperature;BME280_humidity;BME280_pressure;Samples;Min_cycle;Max_cycle;Signal;HPM_P1;HPM_P2
2022/06/17 00:00:44;;;;;;;5.45;3.08;;;17.70;99.90;;;;;;4157473;28;20482;-65
2022/06/17 00:02:45;;;;;;;5.18;2.88;;;17.70;99.90;;;;;;4157677;28;20068;-68
2022/06/17 00:04:47;;;;;;;5.90;2.63;;;17.70;99.90;;;;;;4156848;28;20136;-68
2022/06/17 00:06:55;;;;;;;3.42;2.40;;;17.70;99.90;;;;;;4157418;28;20037;-65
2022/06/17 00:08:57;;;;;;;6.13;3.00;;;17.70;99.90;;;;;;4156971;28;20072;-66
2022/06/17 00:10:59;;;;;;;6.00;2.97;;;17.60;99.90;;;;;;4157418;28;20095;-69
2022/06/17 00:13:00;;;;;;;3.92;2.40;;;17.60;99.90;;;;;;4157193;28;20119;-67
2022/06/17 00:15:13;;;;;;;4.13;2.70;;;17.60;99.90;;;;;;4157739;28;20048;-64
2022/06/17 00:17:14;;;;;;;3.90;2.30;;;17.60;99.90;;;;;;4155567;28;20068;-68
2022/06/17 00:19:18;;;;;;;3.03;2.42;;;17.50;99.90;;;;;;4157236;28;20078;-66
2022/06/17 00:21:27;;;;;;;2.88;1.90;;;17.50;99.90;;;;;;4157403;28;20026;-65
2022/06/17 00:23:28;;;;;;;5.90;2.72;;;17.50;99.90;;;;;;4157207;28;20046;-64
2022/06/17 00:25:34;;;;;;;3.28;2.33;;;17.40;99.90;;;;;;4157355;28;20547;-69
2022/06/17 00:27:36;;;;;;;4.63;2.35;;;17.40;99.90;;;;;;4156997;28;20552;-64
2022/06/17 00:29:37;;;;;;;3.33;2.00;;;17.40;99.90;;;;;;4156700;28;20079;-67
2022/06/17 00:31:39;;;;;;;3.30;2.13;;;17.30;99.90;;;;;;4156610;28;20079;-67
2022/06/17 00:33:40;;;;;;;4.10;2.15;;;17.30;99.90;;;;;;4157285;28;20142;-68
2022/06/17 00:35:52;;;;;;;2.35;2.15;;;17.30;99.90;;;;;;4156641;28;20041;-66
2022/06/17 00:37:54;;;;;;;2.92;2.45;;;17.30;99.90;;;;;;4157407;28;20485;-66
2022/06/17 00:39:55;;;;;;;3.75;2.20;;;17.20;99.90;;;;;;4156606;28;20434;-64
2022/06/17 00:42:05;;;;;;;3.92;2.08;;;17.20;99.90;;;;;;4155681;28;20553;-69
2022/06/17 00:44:19;;;;;;;6.53;2.25;;;17.30;99.90;;;;;;4155998;28;20046;-67
2022/06/17 00:46:50;;;;;;;2.97;2.20;;;17.30;99.90;;;;;;4157413;28;20566;-69
2022/06/17 00:49:10;;;;;;;5.00;2.30;;;17.30;99.90;;;;;;4156212;28;20030;-65
2022/06/17 00:51:27;;;;;;;3.47;2.40;;;17.30;99.90;;;;;;4157101;28;20095;-64
2022/06/17 00:53:41;;;;;;;3.65;2.22;;;17.30;99.90;;;;;;4154923;28;20054;-64
2022/06/17 00:55:52;;;;;;;5.03;2.08;;;17.40;99.90;;;;;;4156253;28;20363;-66
2022/06/17 00:57:54;;;;;;;5.50;2.47;;;17.40;99.90;;;;;;4156238;28;20494;-65
2022/06/17 01:00:07;;;;;;;3.42;2.33;;;17.40;99.90;;;;;;4156452;28;20095;-67
2022/06/17 01:02:10;;;;;;;6.63;3.28;;;17.40;99.90;;;;;;4156414;28;20038;-68
2022/06/17 01:04:12;;;;;;;6.35;2.45;;;17.40;99.90;;;;;;4157657;28;20025;-67
2022/06/17 01:06:17;;;;;;;5.50;2.65;;;17.40;99.90;;;;;;4156365;28;20371;-65
2022/06/17 01:10:48;;;;;;;3.50;2.40;;;17.50;99.90;;;;;;4156671;28;20095;-65
2022/06/17 01:13:03;;;;;;;3.55;2.55;;;17.50;99.90;;;;;;4156488;28;20045;-66
2022/06/17 01:15:05;;;;;;;3.50;2.22;;;17.50;99.90;;;;;;4156188;28;20095;-65
2022/06/17 01:17:09;;;;;;;2.88;2.38;;;17.50;99.90;;;;;;4156386;28;20033;-65
2022/06/17 01:19:26;;;;;;;3.47;2.85;;;17.50;99.90;;;;;;4155841;28;20584;-65
2022/06/17 01:21:42;;;;;;;4.00;1.98;;;17.50;99.90;;;;;;4155292;28;20033;-64
2022/06/17 01:23:44;;;;;;;3.00;2.15;;;17.50;99.90;;;;;;4156129;28;20156;-65
2022/06/17 01:25:45;;;;;;;2.95;2.47;;;17.50;99.90;;;;;;4156497;28;20084;-64
2022/06/17 01:27:49;;;;;;;3.95;2.47;;;17.40;99.90;;;;;;4155827;28;20544;-67
2022/06/17 01:29:51;;;;;;;3.38;2.30;;;17.40;99.90;;;;;;4156478;28;20041;-66
2022/06/17 01:31:54;;;;;;;3.88;2.40;;;17.40;99.90;;;;;;4155723;28;20481;-66
2022/06/17 01:33:56;;;;;;;6.57;2.58;;;17.40;99.90;;;;;;4156668;28;20037;-68
2022/06/17 01:35:59;;;;;;;6.20;2.90;;;17.40;99.90;;;;;;4155719;28;20037;-66
2022/06/17 01:38:01;;;;;;;5.03;2.65;;;17.30;99.90;;;;;;4156648;28;20029;-67
2022/06/17 01:40:03;;;;;;;12.68;3.67;;;17.30;99.90;;;;;;4156058;28;20110;-69
2022/06/17 01:42:04;;;;;;;7.05;3.53;;;17.30;99.90;;;;;;4155934;28;20022;-65
2022/06/17 01:44:15;;;;;;;4.57;3.38;;;17.20;99.90;;;;;;4155538;28;20083;-64
2022/06/17 01:46:18;;;;;;;;;;;17.00;99.90;;;;;;4156955;28;20034;-65
2022/06/17 01:48:22;;;;;;;6.57;3.30;;;16.80;99.90;;;;;;4155767;28;19909;-64
2022/06/17 01:50:27;;;;;;;6.10;3.08;;;16.70;99.90;;;;;;4156030;28;20083;-64
2022/06/17 01:52:41;;;;;;;4.50;2.80;;;16.60;99.90;;;;;;4156010;28;20029;-67
2022/06/17 01:55:09;;;;;;;10.13;2.70;;;16.50;99.90;;;;;;4156158;28;20030;-66
2022/06/17 01:57:16;;;;;;;4.95;3.10;;;16.40;99.90;;;;;;4155368;28;20033;-65
2022/06/17 01:59:49;;;;;;;4.78;3.50;;;16.30;99.90;;;;;;4156256;28;20057;-66
2022/06/17 02:01:54;;;;;;;10.88;4.50;;;16.30;99.90;;;;;;4153737;28;20079;-68
2022/06/17 02:04:07;;;;;;;6.55;3.88;;;16.10;99.90;;;;;;4156229;28;20099;-64
2022/06/17 02:06:15;;;;;;;6.90;3.83;;;15.90;99.90;;;;;;4155350;28;20482;-63
2022/06/17 02:08:16;;;;;;;8.82;4.15;;;15.80;99.90;;;;;;4156092;28;20076;-67
2022/06/17 02:10:22;;;;;;;7.93;3.97;;;15.60;99.90;;;;;;4155942;28;20037;-68
2022/06/17 02:12:24;;;;;;;8.57;3.85;;;15.60;99.90;;;;;;4155677;28;20135;-67
2022/06/17 02:14:25;;;;;;;8.85;5.20;;;15.50;99.90;;;;;;4155053;28;20029;-67
2022/06/17 02:16:27;;;;;;;7.22;3.95;;;15.40;99.90;;;;;;4155728;28;20060;-69
2022/06/17 02:18:28;;;;;;;8.32;4.82;;;15.30;99.90;;;;;;4155681;28;20017;-65
2022/06/17 02:20:30;;;;;;;8.88;4.63;;;15.30;99.90;;;;;;4155758;28;20030;-65
2022/06/17 02:22:35;;;;;;;9.27;4.68;;;15.20;99.90;;;;;;4155699;28;20030;-66
2022/06/17 02:24:38;;;;;;;9.15;4.82;;;15.10;99.90;;;;;;4155739;28;20053;-67
2022/06/17 02:26:43;;;;;;;8.10;4.80;;;15.10;99.90;;;;;;4155558;28;20139;-65
2022/06/17 02:28:45;;;;;;;12.45;4.78;;;15.00;99.90;;;;;;4156029;28;20493;-67
2022/06/17 02:30:48;;;;;;;12.65;4.95;;;15.00;99.90;;;;;;4155341;28;20034;-66
2022/06/17 02:32:51;;;;;;;7.75;5.18;;;14.90;99.90;;;;;;4155335;28;20839;-65
2022/06/17 02:35:14;;;;;;;9.73;4.53;;;14.90;99.90;;;;;;4155826;28;20021;-66
2022/06/17 02:37:17;;;;;;;13.57;5.70;;;14.90;99.90;;;;;;4155637;28;20072;-68
2022/06/17 02:39:19;;;;;;;6.95;4.22;;;14.90;99.90;;;;;;4155806;28;20021;-70
2022/06/17 02:41:21;;;;;;;13.07;4.68;;;14.90;99.90;;;;;;4155560;28;20034;-67
2022/06/17 02:43:26;;;;;;;8.32;5.47;;;14.90;99.90;;;;;;4154210;28;20037;-65
2022/06/17 02:45:32;;;;;;;8.30;4.43;;;14.90;99.90;;;;;;4155073;28;20429;-65
2022/06/17 02:47:33;;;;;;;9.02;4.60;;;14.90;99.90;;;;;;4155577;28;20037;-66
2022/06/17 02:49:36;;;;;;;11.75;5.43;;;14.80;99.90;;;;;;4154785;28;20497;-65
2022/06/17 02:51:39;;;;;;;8.90;4.27;;;14.80;99.90;;;;;;4155936;28;20433;-65
2022/06/17 02:53:42;;;;;;;8.75;5.45;;;14.90;99.90;;;;;;4155190;28;20041;-66
2022/06/17 02:55:44;;;;;;;8.70;4.97;;;15.10;99.90;;;;;;4155530;28;20029;-66
2022/06/17 02:57:48;;;;;;;7.38;5.15;;;15.10;99.90;;;;;;4158092;28;20119;-68
2022/06/17 02:59:55;;;;;;;6.82;4.30;;;15.20;99.90;;;;;;4158407;28;20030;-66
2022/06/17 03:02:05;;;;;;;8.82;5.00;;;15.20;99.90;;;;;;4158295;28;20444;-66
2022/06/17 03:04:13;;;;;;;12.45;5.03;;;15.20;99.90;;;;;;4158258;28;20036;-65
2022/06/17 03:06:21;;;;;;;9.68;5.07;;;15.20;99.90;;;;;;4158262;28;20041;-66
2022/06/17 03:08:29;;;;;;;9.70;4.55;;;15.30;99.90;;;;;;4158385;28;20420;-66
2022/06/17 03:10:41;;;;;;;10.23;4.40;;;15.30;99.90;;;;;;4158759;28;20135;-66
2022/06/17 03:12:44;;;;;;;11.05;4.85;;;15.40;99.90;;;;;;4158622;28;20091;-65
2022/06/17 03:14:49;;;;;;;7.32;4.30;;;15.40;99.90;;;;;;4157496;28;20050;-64
2022/06/17 03:16:58;;;;;;;9.10;4.35;;;15.50;99.90;;;;;;4158228;28;20088;-64
2022/06/17 03:18:59;;;;;;;11.85;4.85;;;15.70;99.90;;;;;;4157862;28;20789;-65
2022/06/17 03:21:02;;;;;;;12.00;5.18;;;15.70;99.90;;;;;;4158086;28;20030;-67
2022/06/17 03:23:12;;;;;;;11.13;4.40;;;15.70;99.90;;;;;;4158236;28;21058;-67
2022/06/17 03:25:31;;;;;;;6.65;4.65;;;15.60;99.90;;;;;;4157975;28;20126;-68
2022/06/17 03:27:43;;;;;;;8.52;4.78;;;15.40;99.90;;;;;;4157479;28;20489;-65
2022/06/17 03:29:46;;;;;;;6.80;4.38;;;15.40;99.90;;;;;;4157600;28;20111;-65
2022/06/17 03:31:55;;;;;;;7.53;5.07;;;15.30;99.90;;;;;;4158360;28;20029;-65
2022/06/17 03:34:07;;;;;;;8.43;4.05;;;15.20;99.90;;;;;;4157583;28;20584;-69
2022/06/17 03:36:32;;;;;;;10.10;4.22;;;15.20;99.90;;;;;;4158393;28;20076;-68
2022/06/17 03:38:53;;;;;;;5.68;3.90;;;15.00;99.90;;;;;;4157679;28;20029;-65
2022/06/17 03:41:00;;;;;;;8.52;5.07;;;15.00;99.90;;;;;;4157815;28;20957;-69
2022/06/17 03:43:12;;;;;;;6.00;4.32;;;15.10;99.90;;;;;;4157834;28;20064;-67
2022/06/17 03:45:28;;;;;;;9.98;4.70;;;15.10;99.90;;;;;;4157092;28;20041;-64
2022/06/17 03:47:53;;;;;;;7.55;4.75;;;15.20;99.90;;;;;;4157770;28;20045;-66
2022/06/17 03:49:59;;;;;;;9.38;4.10;;;15.30;99.90;;;;;;4156176;28;20038;-67
2022/06/17 03:52:11;;;;;;;7.72;4.35;;;15.40;99.90;;;;;;4157493;28;20037;-65
2022/06/17 03:54:15;;;;;;;7.93;3.85;;;15.60;99.90;;;;;;4156917;28;20083;-69
2022/06/17 03:56:31;;;;;;;12.00;4.50;;;15.70;99.90;;;;;;4157381;28;20053;-66
2022/06/17 03:58:32;;;;;;;14.80;4.40;;;15.80;99.90;;;;;;4156487;28;20883;-67
2022/06/17 04:00:48;;;;;;;9.65;4.20;;;15.90;99.90;;;;;;4157303;28;20029;-69
2022/06/17 04:02:51;;;;;;;8.38;4.00;;;16.00;99.90;;;;;;4156813;28;20033;-66
2022/06/17 04:04:53;;;;;;;5.93;4.18;;;16.00;99.90;;;;;;4156975;28;20454;-66
2022/06/17 04:06:56;;;;;;;9.05;4.00;;;16.10;99.90;;;;;;4157152;28;20456;-66
2022/06/17 04:09:00;;;;;;;9.85;4.50;;;16.30;99.90;;;;;;4156904;28;20824;-67
2022/06/17 04:11:03;;;;;;;17.27;4.63;;;16.30;99.90;;;;;;4157034;28;20497;-65
2022/06/17 04:13:06;;;;;;;11.55;5.20;;;16.30;99.90;;;;;;4157123;28;20493;-67
2022/06/17 04:15:19;;;;;;;11.10;4.97;;;16.10;99.90;;;;;;4156727;28;20029;-70
2022/06/17 04:17:39;;;;;;;13.98;4.80;;;16.00;99.90;;;;;;4157171;28;20041;-66
2022/06/17 04:19:42;;;;;;;10.07;4.90;;;15.70;99.90;;;;;;4156680;28;20037;-67
2022/06/17 04:21:44;;;;;;;11.73;5.82;;;15.50;99.90;;;;;;4156888;28;20079;-65
2022/06/17 04:23:47;;;;;;;10.68;5.57;;;15.40;99.90;;;;;;4157129;28;20041;-68
2022/06/17 04:26:00;;;;;;;16.83;7.05;;;15.30;99.90;;;;;;4156696;28;20538;-66
2022/06/17 04:28:06;;;;;;;16.20;5.70;;;15.30;99.90;;;;;;4156360;28;20045;-66
2022/06/17 04:30:09;;;;;;;27.35;14.50;;;15.30;99.90;;;;;;4156582;28;20029;-69
2022/06/17 04:32:18;;;;;;;14.32;6.30;;;15.30;99.90;;;;;;4156275;28;20091;-66
2022/06/17 04:34:19;;;;;;;11.68;5.88;;;15.40;99.90;;;;;;4156323;28;20025;-67
2022/06/17 04:36:46;;;;;;;15.93;6.07;;;15.40;99.90;;;;;;4156083;28;20033;-66
2022/06/17 04:39:20;;;;;;;12.48;5.55;;;15.40;99.90;;;;;;4153057;28;20034;-69
2022/06/17 04:41:26;;;;;;;13.30;6.75;;;15.50;99.90;;;;;;4156750;28;20041;-65
2022/06/17 04:43:38;;;;;;;17.40;7.28;;;15.50;99.90;;;;;;4156610;28;20087;-66
2022/06/17 04:45:39;;;;;;;17.73;6.63;;;15.60;99.90;;;;;;4155951;28;20099;-70
2022/06/17 04:47:40;;;;;;;13.52;6.40;;;15.60;99.90;;;;;;4156262;28;20033;-66
2022/06/17 04:49:47;;;;;;;13.98;6.72;;;15.70;99.90;;;;;;4155907;28;20444;-68
2022/06/17 04:51:50;;;;;;;20.23;8.60;;;15.80;99.90;;;;;;4156337;28;20037;-65
2022/06/17 04:53:52;;;;;;;15.13;9.00;;;15.90;99.90;;;;;;4156146;28;20385;-66
2022/06/17 04:55:53;;;;;;;18.95;8.52;;;15.80;99.90;;;;;;4156368;28;20033;-67
2022/06/17 04:57:56;;;;;;;17.15;8.30;;;15.80;99.90;;;;;;4155948;28;20480;-68
2022/06/17 04:59:59;;;;;;;10.52;6.70;;;15.80;99.90;;;;;;4156367;28;20092;-66
2022/06/17 05:02:04;;;;;;;12.80;6.22;;;15.80;99.90;;;;;;4156484;28;20116;-66
2022/06/17 05:04:06;;;;;;;16.35;6.05;;;15.80;99.90;;;;;;4155666;28;20033;-67
2022/06/17 05:06:09;;;;;;;13.40;5.47;;;15.80;99.90;;;;;;4156370;28;20030;-65
2022/06/17 05:08:22;;;;;;;10.77;4.68;;;15.80;99.90;;;;;;4155142;28;20025;-66
2022/06/17 05:10:32;;;;;;;10.77;5.40;;;15.70;99.90;;;;;;4156205;28;20041;-65
2022/06/17 05:12:36;;;;;;;11.55;5.13;;;15.80;99.90;;;;;;4155854;28;20041;-69
2022/06/17 05:14:46;;;;;;;11.65;5.10;;;15.80;99.90;;;;;;4156308;28;20087;-66
2022/06/17 05:16:47;;;;;;;13.13;5.18;;;15.90;99.90;;;;;;4155333;28;20041;-65
2022/06/17 05:18:49;;;;;;;17.55;5.28;;;15.90;99.90;;;;;;4156020;28;20090;-67
2022/06/17 05:20:51;;;;;;;13.90;5.28;;;16.00;99.90;;;;;;4154874;28;20047;-65
2022/06/17 05:22:54;;;;;;;18.67;6.15;;;16.00;99.90;;;;;;4156154;28;20033;-67
2022/06/17 05:24:55;;;;;;;15.77;6.70;;;16.10;99.90;;;;;;4155358;28;20084;-66
2022/06/17 05:26:57;;;;;;;16.58;6.45;;;16.10;99.90;;;;;;4156133;28;20600;-65
2022/06/17 05:28:59;;;;;;;17.13;6.40;;;16.10;99.90;;;;;;4154097;28;20160;-64
2022/06/17 05:31:00;;;;;;;15.48;7.82;;;16.10;99.90;;;;;;4155535;28;20045;-67
2022/06/17 05:33:01;;;;;;;14.00;6.07;;;16.10;99.90;;;;;;4155286;28;20041;-65
2022/06/17 05:35:04;;;;;;;15.52;7.47;;;16.20;99.90;;;;;;4155359;28;20644;-64
2022/06/17 05:37:05;;;;;;;16.75;7.00;;;16.30;99.90;;;;;;4154747;28;20477;-66
2022/06/17 05:39:07;;;;;;;20.42;6.28;;;16.40;99.90;;;;;;4155040;28;20588;-65
2022/06/17 05:41:15;;;;;;;22.58;6.30;;;16.50;99.90;;;;;;4155301;28;20042;-65
2022/06/17 05:43:16;;;;;;;15.82;6.78;;;16.70;99.90;;;;;;4154706;28;20090;-65
2022/06/17 05:45:21;;;;;;;15.88;5.65;;;16.70;99.90;;;;;;4155127;28;20103;-64
2022/06/17 05:47:22;;;;;;;12.68;5.75;;;16.90;99.90;;;;;;4154813;28;20441;-65
2022/06/17 05:49:24;;;;;;;10.10;4.47;;;17.00;99.90;;;;;;4155390;28;20025;-65
2022/06/17 05:51:27;;;;;;;6.32;3.78;;;17.10;99.90;;;;;;4155212;28;20040;-67
2022/06/17 05:53:28;;;;;;;6.85;3.83;;;17.20;99.90;;;;;;4155899;28;20098;-65
2022/06/17 05:55:31;;;;;;;5.35;3.63;;;17.20;99.90;;;;;;4155235;28;20079;-66
2022/06/17 05:57:32;;;;;;;8.80;4.13;;;17.30;99.90;;;;;;4155466;28;21397;-68
2022/06/17 05:59:34;;;;;;;7.72;3.90;;;17.30;99.90;;;;;;4155378;28;20079;-67
2022/06/17 06:01:35;;;;;;;9.77;4.15;;;17.30;99.90;;;;;;4155466;28;20029;-67
2022/06/17 06:03:36;;;;;;;8.32;4.25;;;17.40;99.90;;;;;;4155210;28;20076;-64
2022/06/17 06:05:37;;;;;;;7.30;3.65;;;17.40;99.90;;;;;;4155423;28;20045;-64
2022/06/17 06:07:38;;;;;;;5.55;3.60;;;17.40;99.90;;;;;;4155594;28;20115;-68
2022/06/17 06:09:39;;;;;;;5.43;3.42;;;17.50;99.90;;;;;;4155483;28;20033;-65
2022/06/17 06:11:41;;;;;;;7.97;3.75;;;17.40;99.90;;;;;;4155903;28;20148;-66
2022/06/17 06:13:42;;;;;;;5.95;3.17;;;17.40;99.90;;;;;;4155387;28;20099;-68
2022/06/17 06:15:46;;;;;;;7.30;3.60;;;17.30;99.90;;;;;;4155438;28;20089;-65
2022/06/17 06:17:48;;;;;;;7.07;3.25;;;17.20;99.90;;;;;;4154858;28;20897;-65
2022/06/17 06:19:49;;;;;;;5.50;2.75;;;17.20;99.90;;;;;;4155526;28;20923;-65
2022/06/17 06:21:50;;;;;;;5.80;3.25;;;17.10;99.90;;;;;;4154822;28;20021;-65
2022/06/17 06:23:54;;;;;;;5.38;3.67;;;17.10;99.90;;;;;;4155610;28;20034;-69
2022/06/17 06:25:55;;;;;;;6.97;3.88;;;17.10;99.90;;;;;;4155014;28;20067;-65
2022/06/17 06:27:56;;;;;;;5.60;3.25;;;17.20;99.90;;;;;;4156115;28;20048;-65
2022/06/17 06:29:57;;;;;;;6.15;3.53;;;17.20;99.90;;;;;;4154945;28;20043;-66
2022/06/17 06:31:59;;;;;;;9.38;3.83;;;17.20;99.90;;;;;;4157314;28;20076;-65
2022/06/17 06:34:01;;;;;;;8.10;4.38;;;17.20;99.90;;;;;;4158127;28;20370;-65
2022/06/17 06:36:02;;;;;;;5.65;3.30;;;17.20;99.90;;;;;;4158119;28;20041;-67
2022/06/17 06:38:04;;;;;;;7.22;3.65;;;17.20;99.90;;;;;;4157337;28;20049;-66
2022/06/17 06:40:06;;;;;;;7.28;3.20;;;17.20;99.90;;;;;;4158153;28;20053;-66
2022/06/17 06:42:07;;;;;;;8.90;3.75;;;17.10;99.90;;;;;;4158643;28;20468;-65
2022/06/17 06:44:09;;;;;;;6.10;3.30;;;17.00;99.90;;;;;;4158571;28;20095;-65
2022/06/17 06:46:13;;;;;;;4.93;3.13;;;16.90;99.90;;;;;;4158369;28;20107;-67
2022/06/17 06:48:17;;;;;;;4.88;3.60;;;16.90;99.90;;;;;;4158308;28;20429;-65
2022/06/17 06:50:22;;;;;;;6.90;3.65;;;16.90;99.90;;;;;;4158388;28;20038;-66
2022/06/17 06:52:23;;;;;;;6.60;3.50;;;17.00;99.90;;;;;;4158215;28;20433;-66
2022/06/17 06:54:24;;;;;;;6.05;3.75;;;17.00;99.90;;;;;;4157945;28;20037;-65
2022/06/17 06:56:25;;;;;;;6.32;3.78;;;17.00;99.90;;;;;;4157222;28;20087;-66
2022/06/17 06:58:26;;;;;;;5.85;3.47;;;17.10;99.90;;;;;;4158060;28;20092;-66
2022/06/17 07:00:33;;;;;;;4.22;2.83;;;17.10;99.90;;;;;;4157559;28;20068;-66
2022/06/17 07:02:35;;;;;;;5.85;3.67;;;17.10;99.90;;;;;;4157789;28;20057;-68
2022/06/17 07:04:37;;;;;;;5.95;3.88;;;17.10;99.90;;;;;;4157251;28;20091;-66
2022/06/17 07:06:38;;;;;;;6.85;4.68;;;17.00;99.90;;;;;;4157636;28;20050;-65
2022/06/17 07:08:39;;;;;;;13.80;4.53;;;17.00;99.90;;;;;;4157656;28;20037;-68
2022/06/17 07:10:41;;;;;;;5.78;4.22;;;16.90;99.90;;;;;;4158054;28;20083;-69
2022/06/17 07:12:44;;;;;;;8.77;4.55;;;16.90;99.90;;;;;;4157862;28;20041;-67
2022/06/17 07:14:46;;;;;;;5.45;3.33;;;16.80;99.90;;;;;;4156930;28;20083;-65
2022/06/17 07:16:48;;;;;;;7.45;4.35;;;16.80;99.90;;;;;;4157518;28;20184;-65
2022/06/17 07:18:49;;;;;;;6.25;3.88;;;16.80;99.90;;;;;;4155901;28;20049;-65
2022/06/17 07:20:54;;;;;;;6.63;3.67;;;16.80;99.90;;;;;;4158057;28;20045;-67
2022/06/17 07:22:55;;;;;;;8.48;4.13;;;16.70;99.90;;;;;;4157665;28;20049;-65
2022/06/17 07:24:57;;;;;;;5.60;4.18;;;16.80;99.90;;;;;;4157734;28;20050;-66
2022/06/17 07:26:58;;;;;;;8.73;5.32;;;16.90;99.90;;;;;;4157152;28;20103;-66
2022/06/17 07:28:59;;;;;;;6.18;4.50;;;16.90;99.90;;;;;;4157865;28;20087;-65
2022/06/17 07:31:00;;;;;;;9.20;3.53;;;17.00;99.90;;;;;;4157270;28;20045;-67
2022/06/17 07:33:02;;;;;;;5.78;3.17;;;17.20;99.90;;;;;;4156977;28;20053;-66
2022/06/17 07:35:03;;;;;;;10.20;8.27;;;17.30;99.90;;;;;;4156838;28;20470;-66
2022/06/17 07:41:43;;;;;;;6.22;4.38;;;17.60;99.90;;;;;;4157694;28;20325;-65
2022/06/17 07:43:45;;;;;;;8.50;4.78;;;17.70;99.90;;;;;;4156018;28;20041;-68
2022/06/17 07:45:46;;;;;;;11.30;5.85;;;17.80;99.90;;;;;;4157722;28;20842;-65
2022/06/17 07:47:54;;;;;;;8.52;5.85;;;17.90;99.90;;;;;;4157021;28;20038;-65
2022/06/17 07:49:55;;;;;;;6.53;4.72;;;17.90;99.90;;;;;;4157039;28;20041;-66
2022/06/17 07:51:57;;;;;;;11.55;6.20;;;18.10;99.90;;;;;;4156786;28;20041;-66
2022/06/17 07:53:58;;;;;;;16.55;6.28;;;18.00;99.90;;;;;;4157687;28;20099;-66
2022/06/17 07:56:00;;;;;;;18.02;7.78;;;17.90;99.90;;;;;;4156942;28;20129;-68
2022/06/17 07:58:02;;;;;;;30.33;8.07;;;17.90;99.90;;;;;;4156801;28;20073;-68
2022/06/17 08:00:06;;;;;;;47.28;13.48;;;17.90;99.90;;;;;;4157025;28;20039;-65
2022/06/17 08:02:07;;;;;;;44.28;10.15;;;17.80;99.90;;;;;;4156418;28;20459;-67
2022/06/17 08:04:08;;;;;;;32.10;10.05;;;17.80;99.90;;;;;;4156498;28;20029;-66
2022/06/17 08:06:13;;;;;;;45.20;9.40;;;17.80;99.90;;;;;;4157290;28;20045;-66
2022/06/17 08:08:21;;;;;;;29.48;8.15;;;17.90;99.90;;;;;;4156832;28;20076;-65
2022/06/17 08:10:27;;;;;;;33.30;7.70;;;18.00;99.90;;;;;;4156619;28;20025;-66
2022/06/17 08:12:28;;;;;;;30.15;7.78;;;17.90;99.90;;;;;;4156693;28;20033;-66
2022/06/17 08:14:29;;;;;;;29.45;7.28;;;18.00;99.90;;;;;;4156667;28;20026;-67
2022/06/17 08:16:30;;;;;;;26.13;6.20;;;18.10;99.90;;;;;;4157160;28;20025;-65
2022/06/17 08:18:32;;;;;;;30.77;6.82;;;18.30;99.90;;;;;;4156119;28;20552;-65
2022/06/17 08:20:35;;;;;;;19.75;5.35;;;18.50;99.90;;;;;;4157107;28;20108;-65
2022/06/17 08:22:41;;;;;;;32.53;6.40;;;18.80;99.90;;;;;;4156068;28;20034;-66
2022/06/17 08:24:42;;;;;;;21.60;5.10;;;19.30;99.90;;;;;;4156686;28;20050;-66
2022/06/17 08:26:43;;;;;;;15.95;4.53;;;19.80;99.90;;;;;;4156401;28;20817;-66
2022/06/17 08:28:44;;;;;;;15.88;4.95;;;20.30;99.90;;;;;;4156979;28;20441;-66
2022/06/17 08:30:51;;;;;;;25.58;7.60;;;20.60;99.90;;;;;;4156470;28;20879;-65
2022/06/17 08:32:53;;;;;;;17.98;4.88;;;20.90;99.90;;;;;;4157053;28;20033;-67
2022/06/17 08:34:54;;;;;;;14.68;4.93;;;21.20;99.90;;;;;;4156348;28;20033;-65
2022/06/17 08:36:55;;;;;;;15.18;4.00;;;21.30;99.90;;;;;;4156482;28;20534;-66
2022/06/17 08:39:05;;;;;;;11.13;3.22;;;21.40;99.90;;;;;;4156321;28;20099;-66
2022/06/17 08:41:24;;;;;;;8.63;2.30;;;21.40;99.90;;;;;;4156471;28;20095;-66
2022/06/17 08:43:34;;;;;;;14.80;2.88;;;21.40;99.90;;;;;;4157149;28;20078;-66
2022/06/17 08:46:14;;;;;;;7.18;1.73;;;21.40;99.90;;;;;;4156560;28;20615;-67
2022/06/17 08:48:31;;;;;;;3.88;1.98;;;21.70;99.90;;;;;;4147657;28;20191;-66
2022/06/17 08:50:44;;;;;;;8.82;2.45;;;22.00;99.90;;;;;;4156902;28;20396;-66
2022/06/17 08:52:57;;;;;;;3.90;2.00;;;22.30;99.90;;;;;;4155314;28;20088;-65
2022/06/17 08:55:07;;;;;;;5.55;1.40;;;22.50;99.90;;;;;;4156173;28;20095;-65
2022/06/17 08:57:11;;;;;;;;;;;22.70;99.90;;;;;;4154083;28;20079;-65
2022/06/17 08:59:13;;;;;;;4.75;1.85;;;22.80;99.90;;;;;;4155879;28;20435;-66
2022/06/17 09:01:43;;;;;;;3.38;1.73;;;22.80;99.90;;;;;;4154133;28;20041;-67
2022/06/17 09:04:06;;;;;;;4.22;1.58;;;22.70;99.90;;;;;;4156281;28;20087;-66
2022/06/17 09:06:22;;;;;;;3.58;1.83;;;22.40;99.90;;;;;;4155584;28;20045;-67
2022/06/17 09:08:41;;;;;;;2.78;1.65;;;22.40;99.90;;;;;;4156211;28;20033;-66
2022/06/17 09:11:03;;;;;;;4.05;1.35;;;22.20;99.90;;;;;;4155256;28;20037;-65
2022/06/17 09:13:25;;;;;;;3.60;1.35;;;22.30;99.90;;;;;;4154561;28;20045;-66
2022/06/17 09:15:40;;;;;;;5.35;1.30;;;22.60;99.90;;;;;;4156063;28;20048;-68
2022/06/17 09:18:12;;;;;;;2.15;1.20;;;22.80;99.90;;;;;;4155157;28;20033;-67
2022/06/17 09:20:19;;;;;;;2.85;1.15;;;22.90;99.90;;;;;;4155609;28;20080;-66
2022/06/17 09:22:26;;;;;;;3.42;1.02;;;22.90;99.90;;;;;;4155743;28;20359;-64
2022/06/17 09:24:38;;;;;;;1.80;1.02;;;22.80;99.90;;;;;;4155705;28;20042;-66
2022/06/17 09:26:49;;;;;;;1.60;1.50;;;22.80;99.90;;;;;;4154998;28;20135;-64
2022/06/17 09:29:09;;;;;;;2.70;1.25;;;22.80;99.90;;;;;;4155667;28;20134;-65
2022/06/17 09:31:10;;;;;;;;;;;22.80;99.90;;;;;;4155814;28;20095;-66
2022/06/17 09:33:23;;;;;;;3.45;1.60;;;22.80;99.90;;;;;;4155236;28;20134;-65
2022/06/17 09:35:35;;;;;;;4.20;1.65;;;22.90;99.90;;;;;;4155154;28;20033;-65
2022/06/17 09:38:08;;;;;;;5.47;1.95;;;23.00;99.90;;;;;;4155234;28;20045;-65
2022/06/17 09:40:19;;;;;;;11.07;2.28;;;22.70;99.90;;;;;;4154643;28;20819;-65
2022/06/17 09:42:32;;;;;;;4.13;1.90;;;22.50;99.90;;;;;;4155590;28;20584;-66
2022/06/17 09:44:42;;;;;;;5.90;2.00;;;22.30;99.90;;;;;;4155652;28;20377;-64
2022/06/17 09:47:08;;;;;;;2.72;1.85;;;22.40;99.90;;;;;;4155246;28;20042;-66
2022/06/17 09:49:23;;;;;;;7.95;1.85;;;22.60;99.90;;;;;;4154722;28;20030;-67
2022/06/17 09:51:40;;;;;;;3.15;1.77;;;22.90;99.90;;;;;;4155369;28;20030;-66
2022/06/17 09:53:44;;;;;;;3.75;1.83;;;23.10;99.90;;;;;;4155141;28;20081;-66
2022/06/17 09:56:05;;;;;;;3.70;1.58;;;23.00;99.90;;;;;;4155065;28;20087;-67
2022/06/17 09:58:19;;;;;;;4.10;2.08;;;23.00;99.90;;;;;;4154938;28;20097;-69
2022/06/17 10:00:25;;;;;;;9.15;3.08;;;22.80;99.90;;;;;;4155463;28;20158;-65
2022/06/17 10:02:51;;;;;;;4.63;2.10;;;22.70;99.90;;;;;;4155073;28;20099;-64
2022/06/17 10:05:01;;;;;;;4.47;2.08;;;22.50;99.90;;;;;;4155717;28;20103;-63
2022/06/17 10:07:14;;;;;;;6.68;2.28;;;22.60;99.90;;;;;;4154792;28;20057;-65
2022/06/17 10:09:48;;;;;;;8.57;2.58;;;22.70;99.90;;;;;;4153754;28;20508;-64
2022/06/17 10:12:17;;;;;;;7.70;2.05;;;23.00;99.90;;;;;;4155027;28;20712;-66
2022/06/17 10:14:45;;;;;;;4.80;2.47;;;23.10;99.90;;;;;;4155518;28;20041;-65
2022/06/17 10:19:37;;;;;;;3.20;1.80;;;23.50;99.90;;;;;;4154541;28;20087;-66
2022/06/17 10:21:41;;;;;;;3.08;1.50;;;23.80;99.90;;;;;;4155358;28;20021;-66
2022/06/17 10:24:18;;;;;;;4.22;2.28;;;23.90;99.90;;;;;;4154551;28;20034;-66
2022/06/17 10:26:32;;;;;;;3.33;1.55;;;23.90;99.90;;;;;;4153792;28;20093;-65
2022/06/17 10:28:50;;;;;;;6.38;1.58;;;23.70;99.90;;;;;;4154482;28;20033;-67
2022/06/17 10:31:01;;;;;;;2.17;1.85;;;23.60;99.90;;;;;;4155024;28;20029;-64
2022/06/17 10:33:02;;;;;;;1.98;1.70;;;23.30;99.90;;;;;;4154949;28;20033;-68
2022/06/17 10:35:06;;;;;;;5.07;1.65;;;23.10;99.90;;;;;;4154906;28;20186;-65
2022/06/17 10:37:08;;;;;;;3.72;2.15;;;22.90;99.90;;;;;;4154633;28;20061;-65
2022/06/17 10:39:12;;;;;;;5.75;1.98;;;22.70;99.90;;;;;;4155607;28;20115;-67
2022/06/17 10:41:16;;;;;;;8.57;2.70;;;22.80;99.90;;;;;;4154593;28;20049;-65
2022/06/17 10:43:21;;;;;;;4.35;2.17;;;22.80;99.90;;;;;;4155615;28;20112;-65
2022/06/17 10:45:22;;;;;;;5.28;1.73;;;22.80;99.90;;;;;;4154860;28;20037;-69
2022/06/17 10:47:44;;;;;;;5.68;2.08;;;23.00;99.90;;;;;;4155275;28;20053;-69
2022/06/17 10:49:51;;;;;;;6.93;2.00;;;23.00;99.90;;;;;;4154450;28;20033;-66
2022/06/17 10:51:54;;;;;;;3.25;1.90;;;23.10;99.90;;;;;;4155235;28;20030;-65
2022/06/17 10:54:02;;;;;;;5.63;1.88;;;23.30;99.90;;;;;;4154747;28;20509;-65
2022/06/17 10:56:11;;;;;;;4.93;1.85;;;23.50;99.90;;;;;;4154798;28;20084;-65
2022/06/17 10:58:21;;;;;;;1.90;1.45;;;23.70;99.90;;;;;;4154181;28;20107;-64
2022/06/17 11:00:25;;;;;;;3.28;1.17;;;24.00;99.70;;;;;;4155150;28;20769;-67
2022/06/17 11:02:30;;;;;;;5.53;1.90;;;24.20;99.50;;;;;;4154192;28;20034;-66
2022/06/17 11:04:39;;;;;;;5.63;2.17;;;24.30;99.10;;;;;;4155047;28;20114;-65
2022/06/17 11:06:51;;;;;;;6.35;2.80;;;24.20;98.90;;;;;;4154141;28;20033;-66
2022/06/17 11:08:59;;;;;;;5.75;1.92;;;24.10;99.00;;;;;;4154795;28;20085;-66